sensor_id;sensor_type;location;lat;lon;timestamp;temperature;humidity
30534;DHT22;17318;52.390;9.754;2023-09-07T00:02:17;20.50;99.20
30534;DHT22;17318;52.390;9.754;2023-09-07T00:04:42;20.40;99.50
30534;DHT22;17318;52.390;9.754;2023-09-07T00:07:08;20.40;99.60
30534;DHT22;17318;52.390;9.754;2023-09-07T00:09:34;20.30;99.80
30534;DHT22;17318;52.390;9.754;2023-09-07T00:12:00;20.30;99.80
30534;DHT22;17318;52.390;9.754;2023-09-07T00:14:26;20.30;99.80
30534;DHT22;17318;52.390;9.754;2023-09-07T00:16:51;20.30;99.80
30534;DHT22;17318;52.390;9.754;2023-09-07T00:19:17;20.20;99.90
30534;DHT22;17318;52.390;9.754;2023-09-07T00:21:42;20.20;99.90
30534;DHT22;17318;52.390;9.754;2023-09-07T00:24:08;20.30;99.80
30534;DHT22;17318;52.390;9.754;2023-09-07T00:26:34;20.30;99.80
30534;DHT22;17318;52.390;9.754;2023-09-07T00:29:00;20.20;99.80
30534;DHT22;17318;52.390;9.754;2023-09-07T00:31:26;20.10;99.90
30534;DHT22;17318;52.390;9.754;2023-09-07T00:33:52;20.00;99.90
30534;DHT22;17318;52.390;9.754;2023-09-07T00:36:17;20.10;99.90
30534;DHT22;17318;52.390;9.754;2023-09-07T00:38:44;20.00;99.90
30534;DHT22;17318;52.390;9.754;2023-09-07T00:41:09;19.90;99.90
30534;DHT22;17318;52.390;9.754;2023-09-07T00:43:35;19.90;99.90
30534;DHT22;17318;52.390;9.754;2023-09-07T00:46:00;20.00;99.90
30534;DHT22;17318;52.390;9.754;2023-09-07T00:48:26;20.00;99.90
30534;DHT22;17318;52.390;9.754;2023-09-07T00:50:52;19.90;99.90
30534;DHT22;17318;52.390;9.754;2023-09-07T00:53:37;19.80;99.90
30534;DHT22;17318;52.390;9.754;2023-09-07T00:56:03;20.00;99.90
30534;DHT22;17318;52.390;9.754;2023-09-07T00:58:47;19.80;99.90
30534;DHT22;17318;52.390;9.754;2023-09-07T01:01:13;19.70;99.90
30534;DHT22;17318;52.390;9.754;2023-09-07T01:03:39;19.70;99.90
30534;DHT22;17318;52.390;9.754;2023-09-07T01:06:15;19.70;99.90
30534;DHT22;17318;52.390;9.754;2023-09-07T01:08:46;19.80;99.90
30534;DHT22;17318;52.390;9.754;2023-09-07T01:11:22;19.80;99.90
30534;DHT22;17318;52.390;9.754;2023-09-07T01:13:51;19.70;99.90
30534;DHT22;17318;52.390;9.754;2023-09-07T01:16:21;19.70;99.90
30534;DHT22;17318;52.390;9.754;2023-09-07T01:18:49;19.60;99.90
30534;DHT22;17318;52.390;9.754;2023-09-07T01:21:15;19.60;99.90
30534;DHT22;17318;52.390;9.754;2023-09-07T01:23:42;19.50;99.90
30534;DHT22;17318;52.390;9.754;2023-09-07T01:26:09;19.60;99.90
30534;DHT22;17318;52.390;9.754;2023-09-07T01:28:35;19.50;99.90
30534;DHT22;17318;52.390;9.754;2023-09-07T01:31:02;19.50;99.90
30534;DHT22;17318;52.390;9.754;2023-09-07T01:33:28;19.50;99.90
30534;DHT22;17318;52.390;9.754;2023-09-07T01:35:54;19.50;99.90
30534;DHT22;17318;52.390;9.754;2023-09-07T01:38:19;19.40;99.90
30534;DHT22;17318;52.390;9.754;2023-09-07T01:40:45;19.50;99.90
30534;DHT22;17318;52.390;9.754;2023-09-07T01:43:11;19.50;99.90
30534;DHT22;17318;52.390;9.754;2023-09-07T01:45:37;19.40;99.90
30534;DHT22;17318;52.390;9.754;2023-09-07T01:48:03;19.30;99.90
30534;DHT22;17318;52.390;9.754;2023-09-07T01:50:28;19.30;99.90
30534;DHT22;17318;52.390;9.754;2023-09-07T01:52:54;19.30;99.90
30534;DHT22;17318;52.390;9.754;2023-09-07T01:55:20;19.10;99.90
30534;DHT22;17318;52.390;9.754;2023-09-07T01:57:45;19.10;99.90
30534;DHT22;17318;52.390;9.754;2023-09-07T02:00:12;19.10;99.90
30534;DHT22;17318;52.390;9.754;2023-09-07T02:02:38;19.10;99.90
30534;DHT22;17318;52.390;9.754;2023-09-07T02:05:04;19.10;99.90
30534;DHT22;17318;52.390;9.754;2023-09-07T02:07:29;19.00;99.90
30534;DHT22;17318;52.390;9.754;2023-09-07T02:09:55;19.00;99.90
30534;DHT22;17318;52.390;9.754;2023-09-07T02:12:21;19.00;99.90
30534;DHT22;17318;52.390;9.754;2023-09-07T02:14:46;19.00;99.90
30534;DHT22;17318;52.390;9.754;2023-09-07T02:17:12;18.90;99.90
30534;DHT22;17318;52.390;9.754;2023-09-07T02:19:43;18.90;99.90
30534;DHT22;17318;52.390;9.754;2023-09-07T02:22:09;18.90;99.90
30534;DHT22;17318;52.390;9.754;2023-09-07T02:24:34;18.80;99.90
30534;DHT22;17318;52.390;9.754;2023-09-07T02:27:00;18.90;99.90
30534;DHT22;17318;52.390;9.754;2023-09-07T02:29:26;18.80;99.90
30534;DHT22;17318;52.390;9.754;2023-09-07T02:31:52;18.80;99.90
30534;DHT22;17318;52.390;9.754;2023-09-07T02:34:18;18.80;99.90
30534;DHT22;17318;52.390;9.754;2023-09-07T02:36:43;18.80;99.90
30534;DHT22;17318;52.390;9.754;2023-09-07T02:39:10;18.80;99.90
30534;DHT22;17318;52.390;9.754;2023-09-07T02:41:37;18.80;99.90
30534;DHT22;17318;52.390;9.754;2023-09-07T02:44:04;18.80;99.90
30534;DHT22;17318;52.390;9.754;2023-09-07T02:46:29;18.70;99.90
30534;DHT22;17318;52.390;9.754;2023-09-07T02:48:58;18.70;99.90
30534;DHT22;17318;52.390;9.754;2023-09-07T02:51:24;18.70;99.90
30534;DHT22;17318;52.390;9.754;2023-09-07T02:53:50;18.70;99.90
30534;DHT22;17318;52.390;9.754;2023-09-07T02:56:16;18.80;99.90
30534;DHT22;17318;52.390;9.754;2023-09-07T02:58:42;18.70;99.90
30534;DHT22;17318;52.390;9.754;2023-09-07T03:01:08;18.80;99.90
30534;DHT22;17318;52.390;9.754;2023-09-07T03:03:37;18.70;99.90
30534;DHT22;17318;52.390;9.754;2023-09-07T03:06:13;18.60;99.90
30534;DHT22;17318;52.390;9.754;2023-09-07T03:08:43;18.60;99.90
30534;DHT22;17318;52.390;9.754;2023-09-07T03:11:09;18.70;99.90
30534;DHT22;17318;52.390;9.754;2023-09-07T03:13:35;18.70;99.90
30534;DHT22;17318;52.390;9.754;2023-09-07T03:16:02;18.70;99.90
30534;DHT22;17318;52.390;9.754;2023-09-07T03:18:28;18.70;99.90
30534;DHT22;17318;52.390;9.754;2023-09-07T03:20:55;18.70;99.90
30534;DHT22;17318;52.390;9.754;2023-09-07T03:23:24;18.70;99.90
30534;DHT22;17318;52.390;9.754;2023-09-07T03:25:50;18.70;99.90
30534;DHT22;17318;52.390;9.754;2023-09-07T03:28:15;18.80;99.90
30534;DHT22;17318;52.390;9.754;2023-09-07T03:30:41;18.70;99.90
30534;DHT22;17318;52.390;9.754;2023-09-07T03:33:07;18.60;99.90
30534;DHT22;17318;52.390;9.754;2023-09-07T03:35:32;18.60;99.90
30534;DHT22;17318;52.390;9.754;2023-09-07T03:37:58;18.60;99.90
30534;DHT22;17318;52.390;9.754;2023-09-07T03:40:24;18.60;99.90
30534;DHT22;17318;52.390;9.754;2023-09-07T03:42:50;18.50;99.90
30534;DHT22;17318;52.390;9.754;2023-09-07T03:45:16;18.40;99.90
30534;DHT22;17318;52.390;9.754;2023-09-07T03:47:42;18.40;99.90
30534;DHT22;17318;52.390;9.754;2023-09-07T03:50:08;18.30;99.90
30534;DHT22;17318;52.390;9.754;2023-09-07T03:52:34;18.30;99.90
30534;DHT22;17318;52.390;9.754;2023-09-07T03:55:00;18.30;99.90
30534;DHT22;17318;52.390;9.754;2023-09-07T03:57:26;18.30;99.90
30534;DHT22;17318;52.390;9.754;2023-09-07T03:59:52;18.30;99.90
30534;DHT22;17318;52.390;9.754;2023-09-07T04:02:19;18.30;99.90
30534;DHT22;17318;52.390;9.754;2023-09-07T04:04:49;18.30;99.90
30534;DHT22;17318;52.390;9.754;2023-09-07T04:07:15;18.20;99.90
30534;DHT22;17318;52.390;9.754;2023-09-07T04:09:42;18.30;99.90
30534;DHT22;17318;52.390;9.754;2023-09-07T04:12:08;18.20;99.90
30534;DHT22;17318;52.390;9.754;2023-09-07T04:14:33;18.20;99.90
30534;DHT22;17318;52.390;9.754;2023-09-07T04:16:59;18.10;99.90
30534;DHT22;17318;52.390;9.754;2023-09-07T04:19:24;18.20;99.90
30534;DHT22;17318;52.390;9.754;2023-09-07T04:21:50;18.20;99.90
30534;DHT22;17318;52.390;9.754;2023-09-07T04:24:17;18.10;99.90
30534;DHT22;17318;52.390;9.754;2023-09-07T04:26:42;18.10;99.90
30534;DHT22;17318;52.390;9.754;2023-09-07T04:29:08;18.10;99.90
30534;DHT22;17318;52.390;9.754;2023-09-07T04:31:34;18.10;99.90
30534;DHT22;17318;52.390;9.754;2023-09-07T04:34:00;18.10;99.90
30534;DHT22;17318;52.390;9.754;2023-09-07T04:36:26;18.00;99.90
30534;DHT22;17318;52.390;9.754;2023-09-07T04:38:52;18.00;99.90
30534;DHT22;17318;52.390;9.754;2023-09-07T04:41:20;18.00;99.90
30534;DHT22;17318;52.390;9.754;2023-09-07T04:43:46;17.90;99.90
30534;DHT22;17318;52.390;9.754;2023-09-07T04:46:12;18.00;99.90
30534;DHT22;17318;52.390;9.754;2023-09-07T04:48:39;18.00;99.90
30534;DHT22;17318;52.390;9.754;2023-09-07T04:51:07;18.00;99.90
30534;DHT22;17318;52.390;9.754;2023-09-07T04:53:35;18.00;99.90
30534;DHT22;17318;52.390;9.754;2023-09-07T04:56:06;18.00;99.90
30534;DHT22;17318;52.390;9.754;2023-09-07T04:58:32;17.90;99.90
30534;DHT22;17318;52.390;9.754;2023-09-07T05:01:09;18.00;99.90
30534;DHT22;17318;52.390;9.754;2023-09-07T05:03:35;18.00;99.90
30534;DHT22;17318;52.390;9.754;2023-09-07T05:06:04;18.00;99.90
30534;DHT22;17318;52.390;9.754;2023-09-07T05:08:30;17.90;99.90
30534;DHT22;17318;52.390;9.754;2023-09-07T05:10:57;18.00;99.90
30534;DHT22;17318;52.390;9.754;2023-09-07T05:13:23;17.90;99.90
30534;DHT22;17318;52.390;9.754;2023-09-07T05:15:50;17.80;99.90
30534;DHT22;17318;52.390;9.754;2023-09-07T05:18:16;17.80;99.90
30534;DHT22;17318;52.390;9.754;2023-09-07T05:20:43;17.70;99.90
30534;DHT22;17318;52.390;9.754;2023-09-07T05:23:13;17.70;99.90
30534;DHT22;17318;52.390;9.754;2023-09-07T05:25:49;17.80;99.90
30534;DHT22;17318;52.390;9.754;2023-09-07T05:28:17;17.80;99.90
30534;DHT22;17318;52.390;9.754;2023-09-07T05:30:43;17.80;99.90
30534;DHT22;17318;52.390;9.754;2023-09-07T05:33:13;17.90;99.90
30534;DHT22;17318;52.390;9.754;2023-09-07T05:35:39;17.90;99.90
30534;DHT22;17318;52.390;9.754;2023-09-07T05:38:05;17.90;99.90
30534;DHT22;17318;52.390;9.754;2023-09-07T05:40:38;17.90;99.90
30534;DHT22;17318;52.390;9.754;2023-09-07T05:43:04;17.90;99.90
30534;DHT22;17318;52.390;9.754;2023-09-07T05:45:31;17.90;99.90
30534;DHT22;17318;52.390;9.754;2023-09-07T05:47:57;17.90;99.90
30534;DHT22;17318;52.390;9.754;2023-09-07T05:50:23;18.00;99.90
30534;DHT22;17318;52.390;9.754;2023-09-07T05:52:48;18.00;99.90
30534;DHT22;17318;52.390;9.754;2023-09-07T05:55:14;18.10;99.90
30534;DHT22;17318;52.390;9.754;2023-09-07T05:57:40;18.10;99.90
30534;DHT22;17318;52.390;9.754;2023-09-07T06:00:06;18.20;99.90
30534;DHT22;17318;52.390;9.754;2023-09-07T06:02:32;18.20;99.90
30534;DHT22;17318;52.390;9.754;2023-09-07T06:04:58;18.30;99.90
30534;DHT22;17318;52.390;9.754;2023-09-07T06:07:23;18.40;99.90
30534;DHT22;17318;52.390;9.754;2023-09-07T06:09:49;18.40;99.90
30534;DHT22;17318;52.390;9.754;2023-09-07T06:12:14;18.40;99.90
30534;DHT22;17318;52.390;9.754;2023-09-07T06:14:40;18.50;99.90
30534;DHT22;17318;52.390;9.754;2023-09-07T06:17:05;18.60;99.90
30534;DHT22;17318;52.390;9.754;2023-09-07T06:19:31;18.60;99.90
30534;DHT22;17318;52.390;9.754;2023-09-07T06:21:57;18.70;99.90
30534;DHT22;17318;52.390;9.754;2023-09-07T06:24:22;18.70;99.90
30534;DHT22;17318;52.390;9.754;2023-09-07T06:26:48;18.70;99.90
30534;DHT22;17318;52.390;9.754;2023-09-07T06:29:15;18.80;99.90
30534;DHT22;17318;52.390;9.754;2023-09-07T06:31:40;18.90;99.90
30534;DHT22;17318;52.390;9.754;2023-09-07T06:34:06;18.90;99.90
30534;DHT22;17318;52.390;9.754;2023-09-07T06:36:32;19.00;99.90
30534;DHT22;17318;52.390;9.754;2023-09-07T06:38:57;19.00;99.90
30534;DHT22;17318;52.390;9.754;2023-09-07T06:41:24;19.10;99.90
30534;DHT22;17318;52.390;9.754;2023-09-07T06:43:49;19.10;99.90
30534;DHT22;17318;52.390;9.754;2023-09-07T06:46:16;19.20;99.90
30534;DHT22;17318;52.390;9.754;2023-09-07T06:48:41;19.30;99.90
30534;DHT22;17318;52.390;9.754;2023-09-07T06:51:07;19.30;99.90
30534;DHT22;17318;52.390;9.754;2023-09-07T06:53:34;19.40;99.90
30534;DHT22;17318;52.390;9.754;2023-09-07T06:56:01;19.50;99.90
30534;DHT22;17318;52.390;9.754;2023-09-07T06:58:27;19.50;99.90
30534;DHT22;17318;52.390;9.754;2023-09-07T07:01:00;19.60;99.90
30534;DHT22;17318;52.390;9.754;2023-09-07T07:03:27;19.60;99.90
30534;DHT22;17318;52.390;9.754;2023-09-07T07:05:53;19.70;99.90
30534;DHT22;17318;52.390;9.754;2023-09-07T07:08:19;19.70;99.90
30534;DHT22;17318;52.390;9.754;2023-09-07T07:10:45;19.80;99.90
30534;DHT22;17318;52.390;9.754;2023-09-07T07:13:11;19.90;99.90
30534;DHT22;17318;52.390;9.754;2023-09-07T07:15:36;20.00;99.90
30534;DHT22;17318;52.390;9.754;2023-09-07T07:18:02;20.00;99.90
30534;DHT22;17318;52.390;9.754;2023-09-07T07:20:35;20.00;99.90
30534;DHT22;17318;52.390;9.754;2023-09-07T07:23:00;20.10;99.90
30534;DHT22;17318;52.390;9.754;2023-09-07T07:25:26;20.10;99.90
30534;DHT22;17318;52.390;9.754;2023-09-07T07:27:52;20.20;99.90
30534;DHT22;17318;52.390;9.754;2023-09-07T07:30:17;20.20;99.90
30534;DHT22;17318;52.390;9.754;2023-09-07T07:32:43;20.30;99.90
30534;DHT22;17318;52.390;9.754;2023-09-07T07:35:08;20.40;99.90
30534;DHT22;17318;52.390;9.754;2023-09-07T07:37:34;20.50;99.90
30534;DHT22;17318;52.390;9.754;2023-09-07T07:40:00;20.50;99.90
30534;DHT22;17318;52.390;9.754;2023-09-07T07:42:25;20.60;99.90
30534;DHT22;17318;52.390;9.754;2023-09-07T07:44:51;20.70;99.90
30534;DHT22;17318;52.390;9.754;2023-09-07T07:47:17;20.70;99.90
30534;DHT22;17318;52.390;9.754;2023-09-07T07:49:42;20.80;99.90
30534;DHT22;17318;52.390;9.754;2023-09-07T07:52:08;20.90;99.90
30534;DHT22;17318;52.390;9.754;2023-09-07T07:54:34;20.90;99.90
30534;DHT22;17318;52.390;9.754;2023-09-07T07:57:00;21.00;99.90
30534;DHT22;17318;52.390;9.754;2023-09-07T07:59:26;21.10;99.90
30534;DHT22;17318;52.390;9.754;2023-09-07T08:01:51;21.10;99.90
30534;DHT22;17318;52.390;9.754;2023-09-07T08:04:17;21.20;99.90
30534;DHT22;17318;52.390;9.754;2023-09-07T08:06:43;21.30;99.90
30534;DHT22;17318;52.390;9.754;2023-09-07T08:09:09;21.40;99.80
30534;DHT22;17318;52.390;9.754;2023-09-07T08:11:35;21.50;99.30
30534;DHT22;17318;52.390;9.754;2023-09-07T08:14:01;21.60;99.30
30534;DHT22;17318;52.390;9.754;2023-09-07T08:16:27;21.70;99.30
30534;DHT22;17318;52.390;9.754;2023-09-07T08:18:53;21.90;99.40
30534;DHT22;17318;52.390;9.754;2023-09-07T08:21:18;22.00;99.40
30534;DHT22;17318;52.390;9.754;2023-09-07T08:23:44;22.30;99.50
30534;DHT22;17318;52.390;9.754;2023-09-07T08:26:10;22.70;99.20
30534;DHT22;17318;52.390;9.754;2023-09-07T08:28:35;23.20;99.00
30534;DHT22;17318;52.390;9.754;2023-09-07T08:31:01;23.90;97.80
30534;DHT22;17318;52.390;9.754;2023-09-07T08:33:27;25.30;98.10
30534;DHT22;17318;52.390;9.754;2023-09-07T08:35:58;26.90;95.90
30534;DHT22;17318;52.390;9.754;2023-09-07T08:38:26;28.50;94.10
30534;DHT22;17318;52.390;9.754;2023-09-07T08:41:00;29.80;91.70
30534;DHT22;17318;52.390;9.754;2023-09-07T08:43:28;31.10;89.50
30534;DHT22;17318;52.390;9.754;2023-09-07T08:46:18;31.30;86.90
30534;DHT22;17318;52.390;9.754;2023-09-07T08:48:47;32.70;80.30
30534;DHT22;17318;52.390;9.754;2023-09-07T08:51:14;33.90;79.70
30534;DHT22;17318;52.390;9.754;2023-09-07T08:53:40;35.00;75.70
30534;DHT22;17318;52.390;9.754;2023-09-07T08:56:07;35.60;71.80
30534;DHT22;17318;52.390;9.754;2023-09-07T08:58:36;36.00;68.20
30534;DHT22;17318;52.390;9.754;2023-09-07T09:01:02;35.90;66.90
30534;DHT22;17318;52.390;9.754;2023-09-07T09:03:28;36.80;64.80
30534;DHT22;17318;52.390;9.754;2023-09-07T09:05:56;36.90;65.80
30534;DHT22;17318;52.390;9.754;2023-09-07T09:08:22;38.10;63.00
30534;DHT22;17318;52.390;9.754;2023-09-07T09:10:59;39.00;59.80
30534;DHT22;17318;52.390;9.754;2023-09-07T09:13:32;39.30;58.00
30534;DHT22;17318;52.390;9.754;2023-09-07T09:16:00;39.90;56.40
30534;DHT22;17318;52.390;9.754;2023-09-07T09:18:27;40.00;55.60
30534;DHT22;17318;52.390;9.754;2023-09-07T09:20:54;40.20;53.60
30534;DHT22;17318;52.390;9.754;2023-09-07T09:23:20;40.50;52.20
30534;DHT22;17318;52.390;9.754;2023-09-07T09:25:48;40.50;51.10
30534;DHT22;17318;52.390;9.754;2023-09-07T09:28:14;40.70;51.70
30534;DHT22;17318;52.390;9.754;2023-09-07T09:30:41;41.30;49.40
30534;DHT22;17318;52.390;9.754;2023-09-07T09:33:10;40.70;49.70
30534;DHT22;17318;52.390;9.754;2023-09-07T09:35:37;41.20;49.60
30534;DHT22;17318;52.390;9.754;2023-09-07T09:38:03;41.80;48.40
30534;DHT22;17318;52.390;9.754;2023-09-07T09:40:33;41.50;47.90
30534;DHT22;17318;52.390;9.754;2023-09-07T09:43:02;42.00;47.50
30534;DHT22;17318;52.390;9.754;2023-09-07T09:45:31;41.70;47.20
30534;DHT22;17318;52.390;9.754;2023-09-07T09:47:58;42.70;46.60
30534;DHT22;17318;52.390;9.754;2023-09-07T09:50:25;42.60;46.00
30534;DHT22;17318;52.390;9.754;2023-09-07T09:52:52;43.00;45.50
30534;DHT22;17318;52.390;9.754;2023-09-07T09:55:19;43.00;45.30
30534;DHT22;17318;52.390;9.754;2023-09-07T09:57:45;43.50;44.60
30534;DHT22;17318;52.390;9.754;2023-09-07T10:00:14;43.90;42.80
30534;DHT22;17318;52.390;9.754;2023-09-07T10:02:44;43.50;42.70
30534;DHT22;17318;52.390;9.754;2023-09-07T10:05:11;43.70;43.10
30534;DHT22;17318;52.390;9.754;2023-09-07T10:07:43;44.10;42.60
30534;DHT22;17318;52.390;9.754;2023-09-07T10:10:12;44.40;41.70
30534;DHT22;17318;52.390;9.754;2023-09-07T10:12:42;44.20;42.00
30534;DHT22;17318;52.390;9.754;2023-09-07T10:15:20;44.00;41.40
30534;DHT22;17318;52.390;9.754;2023-09-07T10:17:46;43.40;40.80
30534;DHT22;17318;52.390;9.754;2023-09-07T10:20:16;43.20;41.50
30534;DHT22;17318;52.390;9.754;2023-09-07T10:22:42;43.90;40.60
30534;DHT22;17318;52.390;9.754;2023-09-07T10:25:21;43.50;40.70
30534;DHT22;17318;52.390;9.754;2023-09-07T10:27:47;42.80;41.50
30534;DHT22;17318;52.390;9.754;2023-09-07T10:30:14;42.90;41.00
30534;DHT22;17318;52.390;9.754;2023-09-07T10:32:45;42.30;41.60
30534;DHT22;17318;52.390;9.754;2023-09-07T10:35:18;43.40;41.90
30534;DHT22;17318;52.390;9.754;2023-09-07T10:37:47;43.50;39.80
30534;DHT22;17318;52.390;9.754;2023-09-07T10:40:18;43.10;40.90
30534;DHT22;17318;52.390;9.754;2023-09-07T10:42:44;43.00;40.30
30534;DHT22;17318;52.390;9.754;2023-09-07T10:45:11;43.70;40.40
30534;DHT22;17318;52.390;9.754;2023-09-07T10:47:41;44.00;39.50
30534;DHT22;17318;52.390;9.754;2023-09-07T10:50:10;43.80;40.50
30534;DHT22;17318;52.390;9.754;2023-09-07T10:52:36;44.50;38.00
30534;DHT22;17318;52.390;9.754;2023-09-07T10:55:01;42.90;39.00
30534;DHT22;17318;52.390;9.754;2023-09-07T10:57:27;42.50;40.00
30534;DHT22;17318;52.390;9.754;2023-09-07T10:59:53;43.00;40.00
30534;DHT22;17318;52.390;9.754;2023-09-07T11:02:20;43.60;39.20
30534;DHT22;17318;52.390;9.754;2023-09-07T11:04:46;43.80;38.50
30534;DHT22;17318;52.390;9.754;2023-09-07T11:07:12;42.50;39.30
30534;DHT22;17318;52.390;9.754;2023-09-07T11:09:42;42.60;39.10
30534;DHT22;17318;52.390;9.754;2023-09-07T11:12:08;42.10;38.80
30534;DHT22;17318;52.390;9.754;2023-09-07T11:14:34;41.70;39.90
30534;DHT22;17318;52.390;9.754;2023-09-07T11:17:03;41.40;40.20
30534;DHT22;17318;52.390;9.754;2023-09-07T11:19:32;40.90;40.80
30534;DHT22;17318;52.390;9.754;2023-09-07T11:21:58;40.30;41.40
30534;DHT22;17318;52.390;9.754;2023-09-07T11:24:24;40.20;41.00
30534;DHT22;17318;52.390;9.754;2023-09-07T11:26:51;39.40;41.50
30534;DHT22;17318;52.390;9.754;2023-09-07T11:29:17;39.40;41.80
30534;DHT22;17318;52.390;9.754;2023-09-07T11:31:46;38.80;42.30
30534;DHT22;17318;52.390;9.754;2023-09-07T11:34:13;38.20;42.90
30534;DHT22;17318;52.390;9.754;2023-09-07T11:36:43;37.30;44.20
30534;DHT22;17318;52.390;9.754;2023-09-07T11:39:11;36.80;45.30
30534;DHT22;17318;52.390;9.754;2023-09-07T11:41:44;36.20;45.50
30534;DHT22;17318;52.390;9.754;2023-09-07T11:44:11;35.40;46.30
30534;DHT22;17318;52.390;9.754;2023-09-07T11:46:37;35.20;46.70
30534;DHT22;17318;52.390;9.754;2023-09-07T11:49:02;35.00;47.10
30534;DHT22;17318;52.390;9.754;2023-09-07T11:51:30;34.80;47.30
30534;DHT22;17318;52.390;9.754;2023-09-07T11:53:56;34.20;48.50
30534;DHT22;17318;52.390;9.754;2023-09-07T11:56:21;33.90;49.50
30534;DHT22;17318;52.390;9.754;2023-09-07T11:58:47;33.90;49.30
30534;DHT22;17318;52.390;9.754;2023-09-07T12:01:13;33.70;49.60
30534;DHT22;17318;52.390;9.754;2023-09-07T12:03:42;33.50;49.90
30534;DHT22;17318;52.390;9.754;2023-09-07T12:06:08;33.40;50.00
30534;DHT22;17318;52.390;9.754;2023-09-07T12:08:35;33.10;50.40
30534;DHT22;17318;52.390;9.754;2023-09-07T12:11:01;33.00;50.60
30534;DHT22;17318;52.390;9.754;2023-09-07T12:13:26;32.70;51.60
30534;DHT22;17318;52.390;9.754;2023-09-07T12:15:52;32.50;52.40
30534;DHT22;17318;52.390;9.754;2023-09-07T12:18:18;32.30;52.50
30534;DHT22;17318;52.390;9.754;2023-09-07T12:20:43;32.30;52.20
30534;DHT22;17318;52.390;9.754;2023-09-07T12:23:10;32.10;53.10
30534;DHT22;17318;52.390;9.754;2023-09-07T12:25:36;32.20;52.90
30534;DHT22;17318;52.390;9.754;2023-09-07T12:28:02;32.30;53.30
30534;DHT22;17318;52.390;9.754;2023-09-07T12:30:28;32.30;52.60
30534;DHT22;17318;52.390;9.754;2023-09-07T12:32:54;32.20;53.00
30534;DHT22;17318;52.390;9.754;2023-09-07T12:35:20;32.20;52.70
30534;DHT22;17318;52.390;9.754;2023-09-07T12:37:46;32.20;53.10
30534;DHT22;17318;52.390;9.754;2023-09-07T12:40:12;32.20;53.40
30534;DHT22;17318;52.390;9.754;2023-09-07T12:42:43;31.90;53.10
30534;DHT22;17318;52.390;9.754;2023-09-07T12:45:10;31.90;53.30
30534;DHT22;17318;52.390;9.754;2023-09-07T12:47:40;31.70;54.20
30534;DHT22;17318;52.390;9.754;2023-09-07T12:50:06;31.60;54.00
30534;DHT22;17318;52.390;9.754;2023-09-07T12:52:33;31.60;53.90
30534;DHT22;17318;52.390;9.754;2023-09-07T12:55:02;31.60;53.50
30534;DHT22;17318;52.390;9.754;2023-09-07T12:57:27;31.60;53.90
30534;DHT22;17318;52.390;9.754;2023-09-07T12:59:53;31.70;54.20
30534;DHT22;17318;52.390;9.754;2023-09-07T13:02:19;31.60;54.30
30534;DHT22;17318;52.390;9.754;2023-09-07T13:04:44;31.40;54.90
30534;DHT22;17318;52.390;9.754;2023-09-07T13:07:10;31.40;54.90
30534;DHT22;17318;52.390;9.754;2023-09-07T13:09:35;31.40;55.00
30534;DHT22;17318;52.390;9.754;2023-09-07T13:12:01;31.50;54.90
30534;DHT22;17318;52.390;9.754;2023-09-07T13:14:27;31.20;55.90
30534;DHT22;17318;52.390;9.754;2023-09-07T13:16:52;31.10;55.60
30534;DHT22;17318;52.390;9.754;2023-09-07T13:19:20;31.20;55.70
30534;DHT22;17318;52.390;9.754;2023-09-07T13:21:45;31.10;55.30
30534;DHT22;17318;52.390;9.754;2023-09-07T13:24:11;31.00;55.10
30534;DHT22;17318;52.390;9.754;2023-09-07T13:26:37;31.10;55.80
30534;DHT22;17318;52.390;9.754;2023-09-07T13:29:02;31.00;55.30
30534;DHT22;17318;52.390;9.754;2023-09-07T13:31:28;31.10;55.00
30534;DHT22;17318;52.390;9.754;2023-09-07T13:33:53;31.00;55.20
30534;DHT22;17318;52.390;9.754;2023-09-07T13:36:19;30.90;55.10
30534;DHT22;17318;52.390;9.754;2023-09-07T13:38:45;30.70;54.10
30534;DHT22;17318;52.390;9.754;2023-09-07T13:41:10;30.70;55.00
30534;DHT22;17318;52.390;9.754;2023-09-07T13:43:36;30.80;54.40
30534;DHT22;17318;52.390;9.754;2023-09-07T13:46:01;30.70;54.50
30534;DHT22;17318;52.390;9.754;2023-09-07T13:48:27;30.70;54.50
30534;DHT22;17318;52.390;9.754;2023-09-07T13:50:53;30.70;53.60
30534;DHT22;17318;52.390;9.754;2023-09-07T13:53:18;30.70;54.20
30534;DHT22;17318;52.390;9.754;2023-09-07T13:55:44;30.40;55.00
30534;DHT22;17318;52.390;9.754;2023-09-07T13:58:11;30.50;54.60
30534;DHT22;17318;52.390;9.754;2023-09-07T14:00:37;30.60;54.50
30534;DHT22;17318;52.390;9.754;2023-09-07T14:03:03;30.50;54.70
30534;DHT22;17318;52.390;9.754;2023-09-07T14:05:30;30.40;54.60
30534;DHT22;17318;52.390;9.754;2023-09-07T14:07:55;30.40;54.10
30534;DHT22;17318;52.390;9.754;2023-09-07T14:10:22;30.30;54.60
30534;DHT22;17318;52.390;9.754;2023-09-07T14:12:48;30.30;55.30
30534;DHT22;17318;52.390;9.754;2023-09-07T14:15:14;30.30;55.20
30534;DHT22;17318;52.390;9.754;2023-09-07T14:17:40;30.10;55.50
30534;DHT22;17318;52.390;9.754;2023-09-07T14:20:06;30.20;55.30
30534;DHT22;17318;52.390;9.754;2023-09-07T14:22:31;30.20;55.40
30534;DHT22;17318;52.390;9.754;2023-09-07T14:24:57;30.20;55.20
30534;DHT22;17318;52.390;9.754;2023-09-07T14:27:23;30.20;55.40
30534;DHT22;17318;52.390;9.754;2023-09-07T14:29:49;30.20;55.40
30534;DHT22;17318;52.390;9.754;2023-09-07T14:32:15;30.10;55.30
30534;DHT22;17318;52.390;9.754;2023-09-07T14:34:41;30.10;55.40
30534;DHT22;17318;52.390;9.754;2023-09-07T14:37:06;29.90;56.20
30534;DHT22;17318;52.390;9.754;2023-09-07T14:39:32;29.90;55.80
30534;DHT22;17318;52.390;9.754;2023-09-07T14:41:57;29.90;56.10
30534;DHT22;17318;52.390;9.754;2023-09-07T14:44:24;29.80;56.20
30534;DHT22;17318;52.390;9.754;2023-09-07T14:46:51;29.80;56.00
30534;DHT22;17318;52.390;9.754;2023-09-07T14:49:16;29.80;55.30
30534;DHT22;17318;52.390;9.754;2023-09-07T14:51:46;29.80;56.20
30534;DHT22;17318;52.390;9.754;2023-09-07T14:54:12;29.60;57.00
30534;DHT22;17318;52.390;9.754;2023-09-07T14:56:38;29.60;56.40
30534;DHT22;17318;52.390;9.754;2023-09-07T14:59:05;29.60;56.40
30534;DHT22;17318;52.390;9.754;2023-09-07T15:01:31;29.70;56.00
30534;DHT22;17318;52.390;9.754;2023-09-07T15:03:57;29.60;56.20
30534;DHT22;17318;52.390;9.754;2023-09-07T15:06:22;29.50;58.00
30534;DHT22;17318;52.390;9.754;2023-09-07T15:08:48;29.40;57.30
30534;DHT22;17318;52.390;9.754;2023-09-07T15:11:16;29.30;56.60
30534;DHT22;17318;52.390;9.754;2023-09-07T15:13:41;29.30;56.90
30534;DHT22;17318;52.390;9.754;2023-09-07T15:16:07;29.30;57.00
30534;DHT22;17318;52.390;9.754;2023-09-07T15:18:34;29.20;56.70
30534;DHT22;17318;52.390;9.754;2023-09-07T15:21:00;29.20;56.30
30534;DHT22;17318;52.390;9.754;2023-09-07T15:23:26;29.20;56.20
30534;DHT22;17318;52.390;9.754;2023-09-07T15:25:52;29.20;56.50
30534;DHT22;17318;52.390;9.754;2023-09-07T15:28:18;29.10;57.20